sensor_id;sensor_type;location;lat;lon;timestamp;P1;durP1;ratioP1;P2;durP2;ratioP2
22468;SDS011;11401;50.792;4.352;2022-12-22T00:00:58;2.08;;;1.88;;
22468;SDS011;11401;50.792;4.352;2022-12-22T00:03:43;1.95;;;1.85;;
22468;SDS011;11401;50.792;4.352;2022-12-22T00:06:29;2.15;;;2.05;;
22468;SDS011;11401;50.792;4.352;2022-12-22T00:09:14;1.75;;;1.58;;
22468;SDS011;11401;50.792;4.352;2022-12-22T00:11:59;2.22;;;2.08;;
22468;SDS011;11401;50.792;4.352;2022-12-22T00:14:44;1.70;;;1.60;;
22468;SDS011;11401;50.792;4.352;2022-12-22T00:17:32;1.80;;;1.70;;
22468;SDS011;11401;50.792;4.352;2022-12-22T00:20:18;1.80;;;1.70;;
22468;SDS011;11401;50.792;4.352;2022-12-22T00:23:04;1.90;;;1.80;;
22468;SDS011;11401;50.792;4.352;2022-12-22T00:25:50;1.60;;;1.50;;
22468;SDS011;11401;50.792;4.352;2022-12-22T00:28:35;1.85;;;1.75;;
22468;SDS011;11401;50.792;4.352;2022-12-22T00:31:21;2.70;;;2.15;;
22468;SDS011;11401;50.792;4.352;2022-12-22T00:34:17;1.73;;;1.63;;
22468;SDS011;11401;50.792;4.352;2022-12-22T00:37:09;1.60;;;1.50;;
22468;SDS011;11401;50.792;4.352;2022-12-22T00:39:56;1.77;;;1.63;;
22468;SDS011;11401;50.792;4.352;2022-12-22T00:42:42;2.03;;;1.90;;
22468;SDS011;11401;50.792;4.352;2022-12-22T00:45:28;2.10;;;1.90;;
22468;SDS011;11401;50.792;4.352;2022-12-22T00:48:24;2.60;;;1.80;;
22468;SDS011;11401;50.792;4.352;2022-12-22T00:51:10;1.77;;;1.67;;
22468;SDS011;11401;50.792;4.352;2022-12-22T00:53:56;1.98;;;1.88;;
22468;SDS011;11401;50.792;4.352;2022-12-22T00:56:41;1.77;;;1.67;;
22468;SDS011;11401;50.792;4.352;2022-12-22T00:59:27;1.60;;;1.50;;
22468;SDS011;11401;50.792;4.352;2022-12-22T01:02:13;1.80;;;1.67;;
22468;SDS011;11401;50.792;4.352;2022-12-22T01:04:59;2.95;;;2.10;;
22468;SDS011;11401;50.792;4.352;2022-12-22T01:07:45;3.58;;;1.73;;
22468;SDS011;11401;50.792;4.352;2022-12-22T01:10:30;1.80;;;1.70;;
22468;SDS011;11401;50.792;4.352;2022-12-22T01:13:16;2.13;;;2.03;;
22468;SDS011;11401;50.792;4.352;2022-12-22T01:16:02;2.70;;;2.05;;
22468;SDS011;11401;50.792;4.352;2022-12-22T01:18:47;2.58;;;2.00;;
22468;SDS011;11401;50.792;4.352;2022-12-22T01:21:33;2.38;;;1.92;;
22468;SDS011;11401;50.792;4.352;2022-12-22T01:24:19;1.77;;;1.67;;
22468;SDS011;11401;50.792;4.352;2022-12-22T01:27:07;1.80;;;1.60;;
22468;SDS011;11401;50.792;4.352;2022-12-22T01:29:53;1.63;;;1.52;;
22468;SDS011;11401;50.792;4.352;2022-12-22T01:32:38;1.90;;;1.50;;
22468;SDS011;11401;50.792;4.352;2022-12-22T01:35:25;1.35;;;1.35;;
22468;SDS011;11401;50.792;4.352;2022-12-22T01:38:12;1.67;;;1.58;;
22468;SDS011;11401;50.792;4.352;2022-12-22T01:40:58;1.40;;;1.30;;
22468;SDS011;11401;50.792;4.352;2022-12-22T01:43:45;1.60;;;1.50;;
22468;SDS011;11401;50.792;4.352;2022-12-22T01:46:36;1.80;;;1.70;;
22468;SDS011;11401;50.792;4.352;2022-12-22T01:49:32;3.63;;;1.63;;
22468;SDS011;11401;50.792;4.352;2022-12-22T01:52:25;1.40;;;1.35;;
22468;SDS011;11401;50.792;4.352;2022-12-22T01:55:19;1.60;;;1.50;;
22468;SDS011;11401;50.792;4.352;2022-12-22T01:58:08;3.28;;;2.00;;
22468;SDS011;11401;50.792;4.352;2022-12-22T02:01:04;1.90;;;1.80;;
22468;SDS011;11401;50.792;4.352;2022-12-22T02:03:50;1.50;;;1.40;;
22468;SDS011;11401;50.792;4.352;2022-12-22T02:06:36;1.60;;;1.50;;
22468;SDS011;11401;50.792;4.352;2022-12-22T02:15:40;1.70;;;1.60;;
22468;SDS011;11401;50.792;4.352;2022-12-22T02:18:43;1.98;;;1.77;;
22468;SDS011;11401;50.792;4.352;2022-12-22T02:21:44;1.45;;;1.35;;
22468;SDS011;11401;50.792;4.352;2022-12-22T02:24:45;1.42;;;1.33;;
22468;SDS011;11401;50.792;4.352;2022-12-22T02:27:35;3.55;;;1.60;;
22468;SDS011;11401;50.792;4.352;2022-12-22T02:30:22;1.67;;;1.58;;
22468;SDS011;11401;50.792;4.352;2022-12-22T02:33:07;2.00;;;1.60;;
22468;SDS011;11401;50.792;4.352;2022-12-22T02:39:22;1.70;;;1.60;;
22468;SDS011;11401;50.792;4.352;2022-12-22T02:42:15;1.70;;;1.60;;
22468;SDS011;11401;50.792;4.352;2022-12-22T02:48:06;2.03;;;1.83;;
22468;SDS011;11401;50.792;4.352;2022-12-22T02:51:04;2.10;;;2.00;;
22468;SDS011;11401;50.792;4.352;2022-12-22T02:54:16;1.98;;;1.88;;
22468;SDS011;11401;50.792;4.352;2022-12-22T02:57:04;2.33;;;1.80;;
22468;SDS011;11401;50.792;4.352;2022-12-22T02:59:50;1.40;;;1.30;;
22468;SDS011;11401;50.792;4.352;2022-12-22T03:02:36;1.75;;;1.65;;
22468;SDS011;11401;50.792;4.352;2022-12-22T03:05:21;1.92;;;1.70;;
22468;SDS011;11401;50.792;4.352;2022-12-22T03:08:07;1.85;;;1.70;;
22468;SDS011;11401;50.792;4.352;2022-12-22T03:10:52;2.00;;;1.80;;
22468;SDS011;11401;50.792;4.352;2022-12-22T03:13:37;1.95;;;1.85;;
22468;SDS011;11401;50.792;4.352;2022-12-22T03:16:23;1.80;;;1.70;;
22468;SDS011;11401;50.792;4.352;2022-12-22T03:19:08;2.00;;;1.90;;
22468;SDS011;11401;50.792;4.352;2022-12-22T03:21:53;3.03;;;1.95;;
22468;SDS011;11401;50.792;4.352;2022-12-22T03:24:39;2.55;;;1.77;;
22468;SDS011;11401;50.792;4.352;2022-12-22T03:27:24;1.90;;;1.80;;
22468;SDS011;11401;50.792;4.352;2022-12-22T03:29:51;1.95;;;1.77;;
22468;SDS011;11401;50.792;4.352;2022-12-22T03:32:18;3.72;;;1.92;;
22468;SDS011;11401;50.792;4.352;2022-12-22T03:34:45;2.38;;;2.10;;
22468;SDS011;11401;50.792;4.352;2022-12-22T03:37:12;2.15;;;1.95;;
22468;SDS011;11401;50.792;4.352;2022-12-22T03:39:39;2.20;;;2.00;;
22468;SDS011;11401;50.792;4.352;2022-12-22T03:42:08;1.88;;;1.77;;
22468;SDS011;11401;50.792;4.352;2022-12-22T03:44:56;2.13;;;1.85;;
22468;SDS011;11401;50.792;4.352;2022-12-22T03:47:41;1.80;;;1.70;;
22468;SDS011;11401;50.792;4.352;2022-12-22T03:50:08;1.58;;;1.48;;
22468;SDS011;11401;50.792;4.352;2022-12-22T03:52:35;3.00;;;1.80;;
22468;SDS011;11401;50.792;4.352;2022-12-22T03:55:02;3.55;;;2.20;;
22468;SDS011;11401;50.792;4.352;2022-12-22T03:57:30;2.70;;;2.50;;
22468;SDS011;11401;50.792;4.352;2022-12-22T03:59:57;1.92;;;1.83;;
22468;SDS011;11401;50.792;4.352;2022-12-22T04:02:24;3.08;;;2.00;;
22468;SDS011;11401;50.792;4.352;2022-12-22T04:04:51;1.92;;;1.83;;
22468;SDS011;11401;50.792;4.352;2022-12-22T04:07:18;1.98;;;1.70;;
22468;SDS011;11401;50.792;4.352;2022-12-22T04:09:45;2.95;;;2.08;;
22468;SDS011;11401;50.792;4.352;2022-12-22T04:12:37;1.70;;;1.60;;
22468;SDS011;11401;50.792;4.352;2022-12-22T04:15:21;2.47;;;1.75;;
22468;SDS011;11401;50.792;4.352;2022-12-22T04:17:53;4.20;;;2.30;;
22468;SDS011;11401;50.792;4.352;2022-12-22T04:20:20;3.72;;;3.30;;
22468;SDS011;11401;50.792;4.352;2022-12-22T04:22:48;3.47;;;3.22;;
22468;SDS011;11401;50.792;4.352;2022-12-22T04:25:15;3.92;;;2.80;;
22468;SDS011;11401;50.792;4.352;2022-12-22T04:27:42;3.33;;;2.53;;
22468;SDS011;11401;50.792;4.352;2022-12-22T04:30:10;2.83;;;2.63;;
22468;SDS011;11401;50.792;4.352;2022-12-22T04:32:37;3.13;;;2.13;;
22468;SDS011;11401;50.792;4.352;2022-12-22T04:35:05;2.80;;;2.60;;
22468;SDS011;11401;50.792;4.352;2022-12-22T04:37:32;2.47;;;2.28;;
22468;SDS011;11401;50.792;4.352;2022-12-22T04:39:59;2.42;;;2.28;;
22468;SDS011;11401;50.792;4.352;2022-12-22T04:42:26;3.28;;;2.30;;
22468;SDS011;11401;50.792;4.352;2022-12-22T04:44:53;2.38;;;2.25;;
22468;SDS011;11401;50.792;4.352;2022-12-22T04:47:20;2.05;;;1.95;;
22468;SDS011;11401;50.792;4.352;2022-12-22T04:49:47;2.05;;;1.92;;
22468;SDS011;11401;50.792;4.352;2022-12-22T04:52:14;2.63;;;2.15;;
22468;SDS011;11401;50.792;4.352;2022-12-22T04:54:41;2.80;;;1.77;;
22468;SDS011;11401;50.792;4.352;2022-12-22T04:57:08;1.60;;;1.50;;
22468;SDS011;11401;50.792;4.352;2022-12-22T04:59:35;2.05;;;1.85;;
22468;SDS011;11401;50.792;4.352;2022-12-22T05:02:02;3.08;;;1.70;;
22468;SDS011;11401;50.792;4.352;2022-12-22T05:04:29;8.50;;;1.58;;
22468;SDS011;11401;50.792;4.352;2022-12-22T05:06:57;1.55;;;1.45;;
22468;SDS011;11401;50.792;4.352;2022-12-22T05:09:24;1.80;;;1.65;;
22468;SDS011;11401;50.792;4.352;2022-12-22T05:11:51;2.42;;;1.83;;
22468;SDS011;11401;50.792;4.352;2022-12-22T05:14:18;3.60;;;1.67;;
22468;SDS011;11401;50.792;4.352;2022-12-22T05:16:45;5.93;;;2.35;;
22468;SDS011;11401;50.792;4.352;2022-12-22T05:19:12;2.10;;;2.00;;
22468;SDS011;11401;50.792;4.352;2022-12-22T05:21:39;2.67;;;2.47;;
22468;SDS011;11401;50.792;4.352;2022-12-22T05:24:07;2.40;;;2.17;;
22468;SDS011;11401;50.792;4.352;2022-12-22T05:26:34;2.35;;;2.15;;
22468;SDS011;11401;50.792;4.352;2022-12-22T05:29:01;1.90;;;1.77;;
22468;SDS011;11401;50.792;4.352;2022-12-22T05:31:28;2.60;;;1.80;;
22468;SDS011;11401;50.792;4.352;2022-12-22T05:33:55;3.08;;;2.47;;
22468;SDS011;11401;50.792;4.352;2022-12-22T05:36:22;2.20;;;2.10;;
22468;SDS011;11401;50.792;4.352;2022-12-22T05:38:49;2.60;;;2.40;;
22468;SDS011;11401;50.792;4.352;2022-12-22T05:41:16;2.75;;;2.55;;
22468;SDS011;11401;50.792;4.352;2022-12-22T05:43:43;2.88;;;2.60;;
22468;SDS011;11401;50.792;4.352;2022-12-22T05:46:10;3.15;;;2.88;;
22468;SDS011;11401;50.792;4.352;2022-12-22T05:48:38;5.43;;;2.55;;
22468;SDS011;11401;50.792;4.352;2022-12-22T05:51:06;3.35;;;3.13;;
22468;SDS011;11401;50.792;4.352;2022-12-22T05:53:34;3.28;;;2.97;;
22468;SDS011;11401;50.792;4.352;2022-12-22T05:56:03;4.10;;;3.15;;
22468;SDS011;11401;50.792;4.352;2022-12-22T05:58:30;4.35;;;3.95;;
22468;SDS011;11401;50.792;4.352;2022-12-22T06:00:58;5.35;;;3.35;;
22468;SDS011;11401;50.792;4.352;2022-12-22T06:03:26;3.45;;;3.05;;
22468;SDS011;11401;50.792;4.352;2022-12-22T06:05:55;4.10;;;3.70;;
22468;SDS011;11401;50.792;4.352;2022-12-22T06:08:22;4.05;;;3.63;;
22468;SDS011;11401;50.792;4.352;2022-12-22T06:10:52;5.75;;;4.82;;
22468;SDS011;11401;50.792;4.352;2022-12-22T06:13:20;5.75;;;4.53;;
22468;SDS011;11401;50.792;4.352;2022-12-22T06:15:48;7.80;;;5.20;;
22468;SDS011;11401;50.792;4.352;2022-12-22T06:18:15;7.10;;;5.40;;
22468;SDS011;11401;50.792;4.352;2022-12-22T06:20:44;6.05;;;5.45;;
22468;SDS011;11401;50.792;4.352;2022-12-22T06:23:12;5.57;;;4.72;;
22468;SDS011;11401;50.792;4.352;2022-12-22T06:25:39;7.72;;;6.10;;
22468;SDS011;11401;50.792;4.352;2022-12-22T06:28:06;7.10;;;5.45;;
22468;SDS011;11401;50.792;4.352;2022-12-22T06:30:33;7.38;;;5.80;;
22468;SDS011;11401;50.792;4.352;2022-12-22T06:33:00;8.02;;;5.80;;
22468;SDS011;11401;50.792;4.352;2022-12-22T06:35:27;7.90;;;6.55;;
22468;SDS011;11401;50.792;4.352;2022-12-22T06:37:54;8.85;;;6.25;;
22468;SDS011;11401;50.792;4.352;2022-12-22T06:40:21;8.20;;;6.43;;
22468;SDS011;11401;50.792;4.352;2022-12-22T06:42:48;8.73;;;6.75;;
22468;SDS011;11401;50.792;4.352;2022-12-22T06:45:36;9.13;;;7.35;;
22468;SDS011;11401;50.792;4.352;2022-12-22T06:48:09;12.52;;;7.13;;
22468;SDS011;11401;50.792;4.352;2022-12-22T06:50:36;6.78;;;6.05;;
22468;SDS011;11401;50.792;4.352;2022-12-22T06:53:04;7.38;;;6.55;;
22468;SDS011;11401;50.792;4.352;2022-12-22T06:55:32;6.75;;;5.35;;
22468;SDS011;11401;50.792;4.352;2022-12-22T06:57:59;7.38;;;6.22;;
22468;SDS011;11401;50.792;4.352;2022-12-22T07:00:26;6.35;;;5.72;;
22468;SDS011;11401;50.792;4.352;2022-12-22T07:02:53;6.75;;;5.70;;
22468;SDS011;11401;50.792;4.352;2022-12-22T07:05:20;8.95;;;6.50;;
22468;SDS011;11401;50.792;4.352;2022-12-22T07:07:49;6.55;;;5.57;;
22468;SDS011;11401;50.792;4.352;2022-12-22T07:10:16;8.50;;;6.90;;
22468;SDS011;11401;50.792;4.352;2022-12-22T07:12:43;7.75;;;5.97;;
22468;SDS011;11401;50.792;4.352;2022-12-22T07:15:10;8.15;;;5.00;;
22468;SDS011;11401;50.792;4.352;2022-12-22T07:17:37;6.05;;;5.47;;
22468;SDS011;11401;50.792;4.352;2022-12-22T07:20:07;6.65;;;5.90;;
22468;SDS011;11401;50.792;4.352;2022-12-22T07:22:34;6.00;;;4.75;;
22468;SDS011;11401;50.792;4.352;2022-12-22T07:25:01;13.20;;;7.85;;
22468;SDS011;11401;50.792;4.352;2022-12-22T07:27:28;11.35;;;7.65;;
22468;SDS011;11401;50.792;4.352;2022-12-22T07:29:55;12.70;;;9.65;;
22468;SDS011;11401;50.792;4.352;2022-12-22T07:32:22;10.23;;;8.25;;
22468;SDS011;11401;50.792;4.352;2022-12-22T07:34:49;11.25;;;7.95;;
22468;SDS011;11401;50.792;4.352;2022-12-22T07:37:16;12.60;;;8.90;;
22468;SDS011;11401;50.792;4.352;2022-12-22T07:39:43;13.75;;;9.18;;
22468;SDS011;11401;50.792;4.352;2022-12-22T07:42:10;17.15;;;9.15;;
22468;SDS011;11401;50.792;4.352;2022-12-22T07:44:56;11.82;;;8.68;;
22468;SDS011;11401;50.792;4.352;2022-12-22T07:47:23;13.27;;;9.20;;
22468;SDS011;11401;50.792;4.352;2022-12-22T07:49:58;12.18;;;9.00;;
22468;SDS011;11401;50.792;4.352;2022-12-22T07:52:44;12.95;;;9.15;;
22468;SDS011;11401;50.792;4.352;2022-12-22T07:55:11;12.27;;;8.63;;
22468;SDS011;11401;50.792;4.352;2022-12-22T07:57:39;12.55;;;8.52;;
22468;SDS011;11401;50.792;4.352;2022-12-22T08:00:06;11.75;;;8.10;;
22468;SDS011;11401;50.792;4.352;2022-12-22T08:02:37;12.80;;;8.25;;
22468;SDS011;11401;50.792;4.352;2022-12-22T08:05:06;13.90;;;9.07;;
22468;SDS011;11401;50.792;4.352;2022-12-22T08:07:34;14.40;;;10.55;;
22468;SDS011;11401;50.792;4.352;2022-12-22T08:10:01;11.25;;;8.65;;
22468;SDS011;11401;50.792;4.352;2022-12-22T08:12:28;14.82;;;8.23;;
22468;SDS011;11401;50.792;4.352;2022-12-22T08:14:56;11.57;;;8.13;;
22468;SDS011;11401;50.792;4.352;2022-12-22T08:17:25;9.82;;;7.65;;
22468;SDS011;11401;50.792;4.352;2022-12-22T08:19:56;12.02;;;8.30;;
22468;SDS011;11401;50.792;4.352;2022-12-22T08:22:23;15.30;;;9.43;;
22468;SDS011;11401;50.792;4.352;2022-12-22T08:24:50;13.52;;;9.10;;
22468;SDS011;11401;50.792;4.352;2022-12-22T08:27:23;13.38;;;8.40;;
22468;SDS011;11401;50.792;4.352;2022-12-22T08:30:06;10.50;;;8.48;;
22468;SDS011;11401;50.792;4.352;2022-12-22T08:32:35;11.05;;;8.32;;
22468;SDS011;11401;50.792;4.352;2022-12-22T08:35:03;14.45;;;8.35;;
22468;SDS011;11401;50.792;4.352;2022-12-22T08:37:31;14.82;;;8.15;;
22468;SDS011;11401;50.792;4.352;2022-12-22T08:40:16;11.13;;;8.65;;
22468;SDS011;11401;50.792;4.352;2022-12-22T08:42:48;15.48;;;9.95;;
22468;SDS011;11401;50.792;4.352;2022-12-22T08:45:17;14.82;;;9.27;;
22468;SDS011;11401;50.792;4.352;2022-12-22T08:47:44;12.98;;;8.98;;
22468;SDS011;11401;50.792;4.352;2022-12-22T08:50:11;9.93;;;8.07;;
22468;SDS011;11401;50.792;4.352;2022-12-22T08:52:39;15.23;;;10.02;;
22468;SDS011;11401;50.792;4.352;2022-12-22T08:55:06;12.25;;;8.75;;
22468;SDS011;11401;50.792;4.352;2022-12-22T08:57:33;11.40;;;7.85;;
22468;SDS011;11401;50.792;4.352;2022-12-22T09:00:00;13.38;;;8.75;;
22468;SDS011;11401;50.792;4.352;2022-12-22T09:02:28;11.85;;;7.75;;
22468;SDS011;11401;50.792;4.352;2022-12-22T09:04:55;14.85;;;10.48;;
22468;SDS011;11401;50.792;4.352;2022-12-22T09:07:22;10.30;;;7.00;;
22468;SDS011;11401;50.792;4.352;2022-12-22T09:09:49;10.70;;;8.02;;
22468;SDS011;11401;50.792;4.352;2022-12-22T09:12:19;10.15;;;8.13;;
22468;SDS011;11401;50.792;4.352;2022-12-22T09:14:46;10.77;;;7.57;;
22468;SDS011;11401;50.792;4.352;2022-12-22T09:17:13;10.48;;;7.93;;
22468;SDS011;11401;50.792;4.352;2022-12-22T09:19:40;11.50;;;8.65;;
22468;SDS011;11401;50.792;4.352;2022-12-22T09:22:07;12.23;;;9.07;;
22468;SDS011;11401;50.792;4.352;2022-12-22T09:24:34;9.48;;;8.07;;
22468;SDS011;11401;50.792;4.352;2022-12-22T09:27:02;8.73;;;6.95;;
22468;SDS011;11401;50.792;4.352;2022-12-22T09:29:31;11.68;;;8.07;;
22468;SDS011;11401;50.792;4.352;2022-12-22T09:31:58;8.23;;;5.95;;
22468;SDS011;11401;50.792;4.352;2022-12-22T09:34:25;9.77;;;6.88;;
22468;SDS011;11401;50.792;4.352;2022-12-22T09:36:52;9.15;;;7.05;;
22468;SDS011;11401;50.792;4.352;2022-12-22T09:39:19;11.23;;;7.60;;
22468;SDS011;11401;50.792;4.352;2022-12-22T09:41:54;9.85;;;8.15;;
22468;SDS011;11401;50.792;4.352;2022-12-22T09:49:56;9.70;;;7.40;;
22468;SDS011;11401;50.792;4.352;2022-12-22T09:52:28;9.30;;;6.40;;
22468;SDS011;11401;50.792;4.352;2022-12-22T09:55:00;8.35;;;7.28;;
22468;SDS011;11401;50.792;4.352;2022-12-22T09:57:29;11.00;;;7.95;;
22468;SDS011;11401;50.792;4.352;2022-12-22T10:00:05;11.90;;;8.50;;
22468;SDS011;11401;50.792;4.352;2022-12-22T10:05:23;12.30;;;6.18;;
22468;SDS011;11401;50.792;4.352;2022-12-22T10:08:14;14.57;;;9.73;;
22468;SDS011;11401;50.792;4.352;2022-12-22T10:10:53;9.90;;;7.90;;
22468;SDS011;11401;50.792;4.352;2022-12-22T10:13:21;8.02;;;7.22;;
22468;SDS011;11401;50.792;4.352;2022-12-22T10:15:48;11.55;;;7.75;;
22468;SDS011;11401;50.792;4.352;2022-12-22T10:18:18;9.65;;;7.28;;
22468;SDS011;11401;50.792;4.352;2022-12-22T10:21:10;8.20;;;7.07;;
22468;SDS011;11401;50.792;4.352;2022-12-22T10:23:40;6.78;;;6.07;;
22468;SDS011;11401;50.792;4.352;2022-12-22T10:26:11;11.70;;;9.05;;
22468;SDS011;11401;50.792;4.352;2022-12-22T10:29:08;6.00;;;5.28;;
22468;SDS011;11401;50.792;4.352;2022-12-22T10:34:25;10.98;;;8.02;;
22468;SDS011;11401;50.792;4.352;2022-12-22T10:36:58;8.18;;;7.25;;
22468;SDS011;11401;50.792;4.352;2022-12-22T10:39:31;7.72;;;6.38;;
22468;SDS011;11401;50.792;4.352;2022-12-22T10:42:01;6.22;;;5.60;;
22468;SDS011;11401;50.792;4.352;2022-12-22T10:44:36;9.40;;;6.63;;
22468;SDS011;11401;50.792;4.352;2022-12-22T10:47:14;8.45;;;6.18;;
22468;SDS011;11401;50.792;4.352;2022-12-22T10:49:48;8.02;;;6.03;;
22468;SDS011;11401;50.792;4.352;2022-12-22T10:52:20;6.95;;;5.47;;
22468;SDS011;11401;50.792;4.352;2022-12-22T10:55:18;8.98;;;5.10;;
22468;SDS011;11401;50.792;4.352;2022-12-22T10:57:44;5.72;;;4.47;;
22468;SDS011;11401;50.792;4.352;2022-12-22T11:00:23;9.60;;;5.55;;
22468;SDS011;11401;50.792;4.352;2022-12-22T11:02:55;7.18;;;5.18;;
22468;SDS011;11401;50.792;4.352;2022-12-22T11:05:24;8.02;;;5.38;;
22468;SDS011;11401;50.792;4.352;2022-12-22T11:07:51;8.45;;;4.53;;
22468;SDS011;11401;50.792;4.352;2022-12-22T11:13:38;8.02;;;5.07;;
22468;SDS011;11401;50.792;4.352;2022-12-22T11:19:06;4.93;;;4.40;;
22468;SDS011;11401;50.792;4.352;2022-12-22T11:35:57;3.33;;;2.78;;
22468;SDS011;11401;50.792;4.352;2022-12-22T11:38:39;4.40;;;2.50;;
22468;SDS011;11401;50.792;4.352;2022-12-22T11:41:19;4.75;;;2.75;;
22468;SDS011;11401;50.792;4.352;2022-12-22T11:47:09;2.90;;;2.60;;
22468;SDS011;11401;50.792;4.352;2022-12-22T12:09:52;2.50;;;1.83;;
22468;SDS011;11401;50.792;4.352;2022-12-22T12:15:33;5.53;;;2.10;;
22468;SDS011;11401;50.792;4.352;2022-12-22T12:18:18;2.65;;;1.90;;
22468;SDS011;11401;50.792;4.352;2022-12-22T12:26:50;2.33;;;2.13;;
22468;SDS011;11401;50.792;4.352;2022-12-22T12:29:23;4.20;;;2.10;;
22468;SDS011;11401;50.792;4.352;2022-12-22T12:34:26;4.32;;;1.80;;
22468;SDS011;11401;50.792;4.352;2022-12-22T12:45:02;4.70;;;1.85;;
22468;SDS011;11401;50.792;4.352;2022-12-22T12:47:31;1.98;;;1.45;;
22468;SDS011;11401;50.792;4.352;2022-12-22T12:57:57;1.77;;;1.50;;
22468;SDS011;11401;50.792;4.352;2022-12-22T13:00:47;1.50;;;1.40;;
22468;SDS011;11401;50.792;4.352;2022-12-22T13:06:10;2.50;;;1.60;;
22468;SDS011;11401;50.792;4.352;2022-12-22T13:09:25;1.80;;;1.70;;
22468;SDS011;11401;50.792;4.352;2022-12-22T13:12:36;2.80;;;1.75;;
22468;SDS011;11401;50.792;4.352;2022-12-22T13:15:25;1.58;;;1.48;;
22468;SDS011;11401;50.792;4.352;2022-12-22T13:18:01;1.95;;;1.52;;
22468;SDS011;11401;50.792;4.352;2022-12-22T13:20:52;1.67;;;1.58;;
22468;SDS011;11401;50.792;4.352;2022-12-22T13:26:45;1.50;;;1.40;;
22468;SDS011;11401;50.792;4.352;2022-12-22T13:29:27;1.83;;;1.50;;
22468;SDS011;11401;50.792;4.352;2022-12-22T13:32:24;2.75;;;2.45;;
22468;SDS011;11401;50.792;4.352;2022-12-22T13:35:06;2.30;;;1.60;;
22468;SDS011;11401;50.792;4.352;2022-12-22T13:37:59;2.30;;;1.80;;
22468;SDS011;11401;50.792;4.352;2022-12-22T13:40:27;3.15;;;2.00;;
22468;SDS011;11401;50.792;4.352;2022-12-22T13:43:10;4.10;;;1.95;;
22468;SDS011;11401;50.792;4.352;2022-12-22T13:45:47;5.35;;;2.20;;
22468;SDS011;11401;50.792;4.352;2022-12-22T13:51:25;2.78;;;1.95;;
22468;SDS011;11401;50.792;4.352;2022-12-22T13:53:58;3.97;;;2.38;;
22468;SDS011;11401;50.792;4.352;2022-12-22T13:56:43;2.80;;;1.98;;
22468;SDS011;11401;50.792;4.352;2022-12-22T14:04:37;3.67;;;2.08;;
22468;SDS011;11401;50.792;4.352;2022-12-22T14:07:12;3.40;;;1.63;;
22468;SDS011;11401;50.792;4.352;2022-12-22T14:09:45;5.85;;;2.60;;
22468;SDS011;11401;50.792;4.352;2022-12-22T14:12:19;4.18;;;3.00;;
22468;SDS011;11401;50.792;4.352;2022-12-22T14:14:50;5.43;;;2.25;;
22468;SDS011;11401;50.792;4.352;2022-12-22T14:17:21;7.88;;;2.05;;
22468;SDS011;11401;50.792;4.352;2022-12-22T14:19:52;5.90;;;2.47;;
22468;SDS011;11401;50.792;4.352;2022-12-22T14:22:32;4.65;;;1.95;;
22468;SDS011;11401;50.792;4.352;2022-12-22T14:25:08;6.88;;;3.25;;
22468;SDS011;11401;50.792;4.352;2022-12-22T14:27:52;5.85;;;2.58;;
22468;SDS011;11401;50.792;4.352;2022-12-22T14:30:25;8.75;;;2.65;;
22468;SDS011;11401;50.792;4.352;2022-12-22T14:33:14;5.57;;;2.90;;
22468;SDS011;11401;50.792;4.352;2022-12-22T14:35:43;5.15;;;2.55;;
22468;SDS011;11401;50.792;4.352;2022-12-22T14:38:15;8.40;;;3.20;;
22468;SDS011;11401;50.792;4.352;2022-12-22T14:40:51;9.88;;;3.17;;
22468;SDS011;11401;50.792;4.352;2022-12-22T14:43:24;3.95;;;1.85;;
22468;SDS011;11401;50.792;4.352;2022-12-22T14:46:06;15.20;;;3.72;;
22468;SDS011;11401;50.792;4.352;2022-12-22T14:48:39;12.32;;;3.80;;
22468;SDS011;11401;50.792;4.352;2022-12-22T14:51:15;10.38;;;3.10;;
22468;SDS011;11401;50.792;4.352;2022-12-22T14:53:47;10.55;;;3.03;;
22468;SDS011;11401;50.792;4.352;2022-12-22T14:56:17;8.80;;;2.38;;
22468;SDS011;11401;50.792;4.352;2022-12-22T14:58:46;14.32;;;4.97;;
22468;SDS011;11401;50.792;4.352;2022-12-22T15:01:17;12.38;;;3.40;;
22468;SDS011;11401;50.792;4.352;2022-12-22T15:04:01;7.88;;;2.75;;
22468;SDS011;11401;50.792;4.352;2022-12-22T15:06:36;9.50;;;3.22;;
22468;SDS011;11401;50.792;4.352;2022-12-22T15:14:15;13.35;;;3.88;;
22468;SDS011;11401;50.792;4.352;2022-12-22T15:16:44;20.35;;;5.10;;
22468;SDS011;11401;50.792;4.352;2022-12-22T15:19:15;14.20;;;3.80;;
22468;SDS011;11401;50.792;4.352;2022-12-22T15:21:46;20.20;;;4.53;;
22468;SDS011;11401;50.792;4.352;2022-12-22T15:24:14;20.90;;;4.68;;
22468;SDS011;11401;50.792;4.352;2022-12-22T15:26:42;12.05;;;3.63;;
22468;SDS011;11401;50.792;4.352;2022-12-22T15:29:10;17.27;;;4.10;;
22468;SDS011;11401;50.792;4.352;2022-12-22T15:31:38;19.33;;;4.55;;
22468;SDS011;11401;50.792;4.352;2022-12-22T15:34:24;20.98;;;4.93;;
22468;SDS011;11401;50.792;4.352;2022-12-22T15:36:53;12.93;;;4.47;;
22468;SDS011;11401;50.792;4.352;2022-12-22T15:39:20;14.43;;;3.78;;
22468;SDS011;11401;50.792;4.352;2022-12-22T15:41:48;16.52;;;4.60;;
22468;SDS011;11401;50.792;4.352;2022-12-22T15:44:16;13.65;;;4.10;;
22468;SDS011;11401;50.792;4.352;2022-12-22T15:46:43;12.93;;;3.25;;
22468;SDS011;11401;50.792;4.352;2022-12-22T15:49:15;13.35;;;3.90;;
22468;SDS011;11401;50.792;4.352;2022-12-22T15:51:46;9.77;;;3.20;;
22468;SDS011;11401;50.792;4.352;2022-12-22T15:54:17;17.35;;;4.25;;
22468;SDS011;11401;50.792;4.352;2022-12-22T15:56:45;12.32;;;3.75;;
22468;SDS011;11401;50.792;4.352;2022-12-22T15:59:14;19.13;;;5.45;;
22468;SDS011;11401;50.792;4.352;2022-12-22T16:01:43;16.58;;;5.20;;
22468;SDS011;11401;50.792;4.352;2022-12-22T16:04:10;16.20;;;4.57;;
22468;SDS011;11401;50.792;4.352;2022-12-22T16:06:38;22.38;;;4.78;;
22468;SDS011;11401;50.792;4.352;2022-12-22T16:09:06;20.63;;;5.15;;
22468;SDS011;11401;50.792;4.352;2022-12-22T16:11:42;20.60;;;5.65;;
22468;SDS011;11401;50.792;4.352;2022-12-22T16:14:11;20.70;;;5.63;;
22468;SDS011;11401;50.792;4.352;2022-12-22T16:16:39;34.35;;;6.25;;
22468;SDS011;11401;50.792;4.352;2022-12-22T16:19:09;15.63;;;5.18;;
22468;SDS011;11401;50.792;4.352;2022-12-22T16:21:39;22.45;;;4.00;;
22468;SDS011;11401;50.792;4.352;2022-12-22T16:24:08;15.07;;;4.50;;
22468;SDS011;11401;50.792;4.352;2022-12-22T16:27:01;27.77;;;6.15;;
22468;SDS011;11401;50.792;4.352;2022-12-22T16:29:28;18.55;;;5.07;;
22468;SDS011;11401;50.792;4.352;2022-12-22T16:34:47;21.17;;;5.97;;
22468;SDS011;11401;50.792;4.352;2022-12-22T16:37:14;20.77;;;5.55;;
22468;SDS011;11401;50.792;4.352;2022-12-22T16:39:44;23.55;;;5.35;;
22468;SDS011;11401;50.792;4.352;2022-12-22T16:42:15;23.80;;;6.65;;
22468;SDS011;11401;50.792;4.352;2022-12-22T16:45:02;14.90;;;4.63;;
22468;SDS011;11401;50.792;4.352;2022-12-22T16:47:32;20.05;;;5.25;;
22468;SDS011;11401;50.792;4.352;2022-12-22T16:50:01;16.27;;;4.90;;
22468;SDS011;11401;50.792;4.352;2022-12-22T16:52:37;22.85;;;5.00;;
22468;SDS011;11401;50.792;4.352;2022-12-22T16:55:16;20.65;;;5.65;;
22468;SDS011;11401;50.792;4.352;2022-12-22T16:57:45;27.02;;;5.97;;
22468;SDS011;11401;50.792;4.352;2022-12-22T17:00:13;15.43;;;4.85;;
22468;SDS011;11401;50.792;4.352;2022-12-22T17:02:44;19.73;;;4.57;;
22468;SDS011;11401;50.792;4.352;2022-12-22T17:05:23;20.17;;;5.65;;
22468;SDS011;11401;50.792;4.352;2022-12-22T17:08:21;23.73;;;4.70;;
22468;SDS011;11401;50.792;4.352;2022-12-22T17:10:53;17.60;;;5.43;;
22468;SDS011;11401;50.792;4.352;2022-12-22T17:13:21;22.83;;;5.95;;
22468;SDS011;11401;50.792;4.352;2022-12-22T17:15:49;19.83;;;5.70;;
22468;SDS011;11401;50.792;4.352;2022-12-22T17:18:17;18.92;;;5.38;;
22468;SDS011;11401;50.792;4.352;2022-12-22T17:20:46;19.52;;;5.68;;
22468;SDS011;11401;50.792;4.352;2022-12-22T17:26:29;17.90;;;4.68;;
22468;SDS011;11401;50.792;4.352;2022-12-22T17:28:59;20.48;;;6.40;;